Time;durP1;ratioP1;P1;durP2;ratioP2;P2;SDS_P1;SDS_P2;PMS_P1;PMS_P2;Temp;Humidity;BMP_temperature;BMP_pressure;BME280_temperature;BME280_humidity;BME280_pressure;Samples;Min_cycle;Max_cycle;Signal;HPM_P1;HPM_P2
2022/04/28 00:01:13;;;;;;;7.55;6.50;;;;;;;;;;5103385;28;20204;-69
2022/04/28 00:03:41;;;;;;;6.80;6.30;;;;;;;;;;5103738;28;20202;-69
2022/04/28 00:06:07;;;;;;;7.30;6.72;;;;;;;;;;5103374;28;20223;-69
2022/04/28 00:08:33;;;;;;;6.85;6.15;;;;;;;;;;5102318;28;20534;-69
2022/04/28 00:11:00;;;;;;;6.32;5.82;;;;;;;;;;5103320;28;20195;-69
2022/04/28 00:13:26;;;;;;;6.60;5.95;;;;;;;;;;5103938;28;20195;-69
2022/04/28 00:15:53;;;;;;;6.28;5.88;;;;;;;;;;5103540;28;20196;-69
2022/04/28 00:18:19;;;;;;;7.55;5.95;;;;;;;;;;5102955;28;20237;-69
2022/04/28 00:20:46;;;;;;;6.75;6.15;;;;;;;;;;5103458;28;20518;-69
2022/04/28 00:23:13;;;;;;;7.00;6.30;;;;;;;;;;5103227;28;20496;-69
2022/04/28 00:25:39;;;;;;;6.50;6.10;;;;;;;;;;5103045;28;20507;-69
2022/04/28 00:28:05;;;;;;;6.57;6.15;;;;;;;;;;5103253;28;20224;-68
2022/04/28 00:30:32;;;;;;;6.32;5.72;;;;;;;;;;5103423;28;20425;-69
2022/04/28 00:32:58;;;;;;;7.00;5.95;;;;;;;;;;5103329;28;20289;-69
2022/04/28 00:35:24;;;;;;;6.43;5.93;;;;;;;;;;5102890;28;20241;-69
2022/04/28 00:37:52;;;;;;;6.55;5.85;;;;;;;;;;5102759;28;20195;-69
2022/04/28 00:40:18;;;;;;;6.25;5.68;;;;;;;;;;5102792;28;20390;-69
2022/04/28 00:42:44;;;;;;;6.70;6.15;;;;;;;;;;5102969;28;20199;-68
2022/04/28 00:45:10;;;;;;;5.97;5.57;;;;;;;;;;5102948;28;20199;-69
2022/04/28 00:50:39;;;;;;;9.05;6.55;;;;;;;;;;5102650;28;20234;-69
2022/04/28 00:53:08;;;;;;;7.40;6.70;;;;;;;;;;5102764;28;20195;-69
2022/04/28 00:55:35;;;;;;;7.57;6.90;;;;;;;;;;5102738;28;20196;-69
2022/04/28 00:58:02;;;;;;;6.90;6.40;;;;;;;;;;5102552;28;20301;-69
2022/04/28 01:00:28;;;;;;;7.57;6.97;;;;;;;;;;5102703;28;20203;-69
2022/04/28 01:02:55;;;;;;;7.40;6.82;;;;;;;;;;5102981;28;20294;-69
2022/04/28 01:05:22;;;;;;;7.20;6.50;;;;;;;;;;5102925;28;20223;-69
2022/04/28 01:07:48;;;;;;;6.60;6.10;;;;;;;;;;5102907;28;20196;-69
2022/04/28 01:10:16;;;;;;;7.15;6.55;;;;;;;;;;5103060;28;20219;-69
2022/04/28 01:12:43;;;;;;;7.65;6.93;;;;;;;;;;5102837;28;20192;-69
2022/04/28 01:15:10;;;;;;;7.80;7.10;;;;;;;;;;5102666;28;20487;-69
2022/04/28 01:17:36;;;;;;;7.75;7.15;;;;;;;;;;5102114;28;20203;-69
2022/04/28 01:20:02;;;;;;;7.53;6.97;;;;;;;;;;5103995;28;20191;-69
2022/04/28 01:22:31;;;;;;;9.27;7.88;;;;;;;;;;5106794;28;20200;-69
2022/04/28 01:24:57;;;;;;;7.82;7.10;;;;;;;;;;5106455;28;20204;-69
2022/04/28 01:27:25;;;;;;;8.05;7.25;;;;;;;;;;5106194;28;20204;-68
2022/04/28 01:29:51;;;;;;;7.68;6.97;;;;;;;;;;5106515;28;20219;-69
2022/04/28 01:32:17;;;;;;;7.90;7.18;;;;;;;;;;5106538;28;20195;-68
2022/04/28 01:34:43;;;;;;;7.47;6.78;;;;;;;;;;5106343;28;20503;-69
2022/04/28 01:37:10;;;;;;;10.05;6.47;;;;;;;;;;5106164;28;20195;-69
2022/04/28 01:39:37;;;;;;;7.03;6.43;;;;;;;;;;5106328;28;20499;-69
2022/04/28 01:42:05;;;;;;;6.53;5.88;;;;;;;;;;5106491;28;20532;-69
2022/04/28 01:44:32;;;;;;;8.68;6.38;;;;;;;;;;5106142;28;20195;-69
2022/04/28 01:46:59;;;;;;;7.00;6.30;;;;;;;;;;5106127;28;20263;-69
2022/04/28 01:49:25;;;;;;;6.75;6.13;;;;;;;;;;5106113;28;20290;-69
2022/04/28 01:57:21;;;;;;;7.85;7.07;;;;;;;;;;5105681;28;20230;-69
2022/04/28 01:59:47;;;;;;;7.72;6.93;;;;;;;;;;5106272;28;20237;-68
2022/04/28 02:02:14;;;;;;;7.85;7.05;;;;;;;;;;5106111;28;20203;-69
2022/04/28 02:04:40;;;;;;;7.47;6.82;;;;;;;;;;5106288;28;20241;-69
2022/04/28 02:07:06;;;;;;;7.63;7.03;;;;;;;;;;5105975;28;20242;-69
2022/04/28 02:09:32;;;;;;;7.15;6.55;;;;;;;;;;5105922;28;20227;-69
2022/04/28 02:12:00;;;;;;;7.70;7.03;;;;;;;;;;5106230;28;20200;-69
2022/04/28 02:14:26;;;;;;;7.43;6.82;;;;;;;;;;5105920;28;20364;-69
2022/04/28 02:16:53;;;;;;;7.80;7.20;;;;;;;;;;5105640;28;20200;-69
2022/04/28 02:19:19;;;;;;;7.88;7.18;;;;;;;;;;5105944;28;20192;-69
2022/04/28 02:21:45;;;;;;;8.07;7.28;;;;;;;;;;5105968;28;20195;-69
2022/04/28 02:24:12;;;;;;;7.45;6.75;;;;;;;;;;5106171;28;20418;-69
2022/04/28 02:26:38;;;;;;;8.40;7.68;;;;;;;;;;5105303;28;20218;-69
2022/04/28 02:29:06;;;;;;;7.00;6.50;;;;;;;;;;5105285;28;20257;-68
2022/04/28 02:31:32;;;;;;;7.60;6.97;;;;;;;;;;5104077;28;20241;-68
2022/04/28 02:33:58;;;;;;;6.38;5.97;;;;;;;;;;5105223;28;20195;-69
2022/04/28 02:36:25;;;;;;;9.55;7.35;;;;;;;;;;5105095;28;20203;-69
2022/04/28 02:38:51;;;;;;;6.88;6.25;;;;;;;;;;5105200;28;20546;-69
2022/04/28 02:41:20;;;;;;;7.40;6.65;;;;;;;;;;5105127;28;20196;-69
2022/04/28 02:43:47;;;;;;;8.15;7.45;;;;;;;;;;5105178;28;20196;-69
2022/04/28 02:46:14;;;;;;;7.20;6.60;;;;;;;;;;5104694;28;20234;-69
2022/04/28 02:48:40;;;;;;;8.23;7.53;;;;;;;;;;5104947;28;20207;-69
2022/04/28 02:51:07;;;;;;;7.30;6.70;;;;;;;;;;5104919;28;20241;-69
2022/04/28 02:53:34;;;;;;;8.38;7.60;;;;;;;;;;5104943;28;20196;-69
2022/04/28 02:56:00;;;;;;;7.15;6.50;;;;;;;;;;5104571;28;20199;-69
2022/04/28 02:58:26;;;;;;;7.25;6.65;;;;;;;;;;5104651;28;20199;-69
2022/04/28 03:00:53;;;;;;;7.63;7.00;;;;;;;;;;5104483;28;20249;-69
2022/04/28 03:03:20;;;;;;;7.53;6.85;;;;;;;;;;5104723;28;20233;-69
2022/04/28 03:11:14;;;;;;;7.13;6.60;;;;;;;;;;5104853;28;20465;-68
2022/04/28 03:13:41;;;;;;;7.07;6.57;;;;;;;;;;5104894;28;20233;-69
2022/04/28 03:16:07;;;;;;;7.45;6.85;;;;;;;;;;5104787;28;20426;-69
2022/04/28 03:18:35;;;;;;;6.93;6.32;;;;;;;;;;5104846;28;20234;-69
2022/04/28 03:21:01;;;;;;;7.03;6.43;;;;;;;;;;5104317;28;20249;-69
2022/04/28 03:23:28;;;;;;;8.07;7.38;;;;;;;;;;5104253;28;20504;-69
2022/04/28 03:25:54;;;;;;;7.97;7.28;;;;;;;;;;5104142;28;20362;-69
2022/04/28 03:28:20;;;;;;;7.32;6.72;;;;;;;;;;5104222;28;20196;-69
2022/04/28 03:30:47;;;;;;;9.15;6.97;;;;;;;;;;5104165;28;20581;-69
2022/04/28 03:33:13;;;;;;;8.07;7.45;;;;;;;;;;5104077;28;20223;-69
2022/04/28 03:35:41;;;;;;;8.52;7.60;;;;;;;;;;5104053;28;20196;-69
2022/04/28 03:38:09;;;;;;;8.52;7.72;;;;;;;;;;5103851;28;20364;-69
2022/04/28 03:40:36;;;;;;;9.77;8.45;;;;;;;;;;5103750;28;20195;-69
2022/04/28 03:43:03;;;;;;;8.93;7.65;;;;;;;;;;5103929;28;20230;-69
2022/04/28 03:45:29;;;;;;;10.15;8.07;;;;;;;;;;5103861;28;20203;-69
2022/04/28 03:47:56;;;;;;;8.90;8.02;;;;;;;;;;5103660;28;20196;-69
2022/04/28 03:50:22;;;;;;;8.60;7.88;;;;;;;;;;5103687;28;20250;-69
2022/04/28 03:52:49;;;;;;;8.57;7.78;;;;;;;;;;5103691;28;20200;-69
2022/04/28 03:55:16;;;;;;;9.23;8.23;;;;;;;;;;5103575;28;20204;-69
2022/04/28 03:57:42;;;;;;;12.13;7.85;;;;;;;;;;5103470;28;20196;-69
2022/04/28 04:00:09;;;;;;;8.02;7.32;;;;;;;;;;5103682;28;20191;-69
2022/04/28 04:02:35;;;;;;;8.85;7.95;;;;;;;;;;5103427;28;20249;-69
2022/04/28 04:05:01;;;;;;;8.32;7.53;;;;;;;;;;5103612;28;20216;-68
2022/04/28 04:07:29;;;;;;;8.80;7.60;;;;;;;;;;5103195;28;20200;-69
2022/04/28 04:09:57;;;;;;;9.75;8.35;;;;;;;;;;5103383;28;20242;-69
2022/04/28 04:12:23;;;;;;;9.23;8.32;;;;;;;;;;5103590;28;20200;-69
2022/04/28 04:14:49;;;;;;;9.30;8.50;;;;;;;;;;5103536;28;20200;-69
2022/04/28 04:17:16;;;;;;;9.50;8.63;;;;;;;;;;5103367;28;20420;-69
2022/04/28 04:19:42;;;;;;;9.05;8.15;;;;;;;;;;5103702;28;20192;-69
2022/04/28 04:22:08;;;;;;;9.15;8.18;;;;;;;;;;5103408;28;20207;-69
2022/04/28 04:24:35;;;;;;;9.35;8.45;;;;;;;;;;5103073;28;20222;-69
2022/04/28 04:27:03;;;;;;;10.35;8.65;;;;;;;;;;5103004;28;20286;-69
2022/04/28 04:29:30;;;;;;;9.60;8.30;;;;;;;;;;5103065;28;20215;-69
2022/04/28 04:34:40;;;;;;;11.00;9.40;;;;;;;;;;5103015;28;20241;-69
2022/04/28 04:37:06;;;;;;;9.63;8.73;;;;;;;;;;5102754;28;20195;-69
2022/04/28 04:39:32;;;;;;;10.68;9.48;;;;;;;;;;5102990;28;20191;-69
2022/04/28 04:41:59;;;;;;;10.68;8.45;;;;;;;;;;5102849;28;20200;-69
2022/04/28 04:44:26;;;;;;;10.73;8.95;;;;;;;;;;5102929;28;20577;-69
2022/04/28 04:46:52;;;;;;;9.93;8.93;;;;;;;;;;5102505;28;20426;-68
2022/04/28 04:49:19;;;;;;;9.40;8.40;;;;;;;;;;5102485;28;20218;-69
2022/04/28 04:51:45;;;;;;;10.32;8.80;;;;;;;;;;5102866;28;20195;-69
2022/04/28 04:54:11;;;;;;;9.30;8.35;;;;;;;;;;5102199;28;20218;-69
2022/04/28 04:56:38;;;;;;;9.85;8.93;;;;;;;;;;5102351;28;20196;-69
2022/04/28 04:59:04;;;;;;;9.70;8.73;;;;;;;;;;5102555;28;20202;-68
2022/04/28 05:01:32;;;;;;;10.60;9.05;;;;;;;;;;5102364;28;20422;-69
2022/04/28 05:03:58;;;;;;;9.07;8.35;;;;;;;;;;5102285;28;20298;-69
2022/04/28 05:06:24;;;;;;;9.32;8.40;;;;;;;;;;5102035;28;20452;-69
2022/04/28 05:08:50;;;;;;;12.77;8.90;;;;;;;;;;5102325;28;20196;-69
2022/04/28 05:11:17;;;;;;;9.48;8.50;;;;;;;;;;5102750;28;20219;-68
2022/04/28 05:13:43;;;;;;;9.60;8.70;;;;;;;;;;5102300;28;20241;-68
2022/04/28 05:16:09;;;;;;;13.23;8.77;;;;;;;;;;5102223;28;20208;-69
2022/04/28 05:18:38;;;;;;;12.73;9.05;;;;;;;;;;5102876;28;20244;-69
2022/04/28 05:21:04;;;;;;;10.10;9.10;;;;;;;;;;5102492;28;20191;-69
2022/04/28 05:23:30;;;;;;;11.52;8.40;;;;;;;;;;5102548;28;20228;-69
2022/04/28 05:25:57;;;;;;;10.15;9.15;;;;;;;;;;5102258;28;20432;-69
2022/04/28 05:28:26;;;;;;;11.52;9.80;;;;;;;;;;5102095;28;20196;-69
2022/04/28 05:30:54;;;;;;;11.23;9.30;;;;;;;;;;5102057;28;20253;-69
2022/04/28 05:33:20;;;;;;;11.52;10.32;;;;;;;;;;5102327;28;20196;-69
2022/04/28 05:35:48;;;;;;;10.80;9.65;;;;;;;;;;5102609;28;20199;-69
2022/04/28 05:38:14;;;;;;;10.98;9.88;;;;;;;;;;5102073;28;20241;-68
2022/04/28 05:40:40;;;;;;;11.85;10.73;;;;;;;;;;5102172;28;20192;-69
2022/04/28 05:45:51;;;;;;;13.23;10.73;;;;;;;;;;5102063;28;20432;-69
2022/04/28 05:48:18;;;;;;;13.60;10.27;;;;;;;;;;5102267;28;20203;-69
2022/04/28 05:50:45;;;;;;;12.88;10.65;;;;;;;;;;5102100;28;20264;-69
2022/04/28 05:53:12;;;;;;;11.15;9.93;;;;;;;;;;5102087;28;20196;-69
2022/04/28 05:55:39;;;;;;;15.93;12.43;;;;;;;;;;5101995;28;20257;-69
2022/04/28 05:58:06;;;;;;;17.58;13.05;;;;;;;;;;5101666;28;20781;-62
2022/04/28 06:00:33;;;;;;;14.93;12.48;;;;;;;;;;5098949;28;20200;-60
2022/04/28 06:03:00;;;;;;;14.85;12.13;;;;;;;;;;5087275;28;20272;-60
2022/04/28 06:05:26;;;;;;;18.63;13.88;;;;;;;;;;5095869;28;20269;-58
2022/04/28 06:07:53;;;;;;;20.15;12.85;;;;;;;;;;5099060;28;20202;-58
2022/04/28 06:10:21;;;;;;;14.27;12.55;;;;;;;;;;5098960;28;20469;-59
2022/04/28 06:12:47;;;;;;;17.48;13.05;;;;;;;;;;5095969;28;20550;-59
2022/04/28 06:15:14;;;;;;;14.45;12.95;;;;;;;;;;5098015;28;20526;-59
2022/04/28 06:17:40;;;;;;;16.73;13.80;;;;;;;;;;5099064;28;20577;-59
2022/04/28 06:20:07;;;;;;;16.17;13.55;;;;;;;;;;5099823;28;20204;-59
2022/04/28 06:22:33;;;;;;;18.02;14.50;;;;;;;;;;5099769;28;20246;-58
2022/04/28 06:24:59;;;;;;;18.02;14.27;;;;;;;;;;5099915;28;20207;-59
2022/04/28 06:27:29;;;;;;;16.45;13.50;;;;;;;;;;5099721;28;20620;-58
2022/04/28 06:29:55;;;;;;;19.92;14.25;;;;;;;;;;5099640;28;20269;-59
2022/04/28 06:32:21;;;;;;;17.10;14.82;;;;;;;;;;5099300;28;20342;-59
2022/04/28 06:34:48;;;;;;;20.75;14.50;;;;;;;;;;5099250;28;20424;-58
2022/04/28 06:37:14;;;;;;;20.15;14.70;;;;;;;;;;5096917;28;20251;-61
2022/04/28 06:39:40;;;;;;;19.67;14.98;;;;;;;;;;5099277;28;20277;-61
2022/04/28 06:42:07;;;;;;;20.13;15.30;;;;;;;;;;5099023;28;20429;-60
2022/04/28 06:44:36;;;;;;;17.80;15.10;;;;;;;;;;5099242;28;20207;-61
2022/04/28 06:47:02;;;;;;;19.90;14.52;;;;;;;;;;5099136;28;20230;-61
2022/04/28 06:49:28;;;;;;;18.23;15.80;;;;;;;;;;5099555;28;20305;-61
2022/04/28 06:51:54;;;;;;;17.23;14.95;;;;;;;;;;5099333;28;20231;-61
2022/04/28 06:54:21;;;;;;;20.65;15.13;;;;;;;;;;5099044;28;20207;-61
2022/04/28 06:56:47;;;;;;;21.02;15.20;;;;;;;;;;5098893;28;20450;-61
2022/04/28 06:59:14;;;;;;;19.55;14.80;;;;;;;;;;5099152;28;20479;-61
2022/04/28 07:01:41;;;;;;;22.58;16.17;;;;;;;;;;5098794;28;20253;-61
2022/04/28 07:04:07;;;;;;;17.77;15.27;;;;;;;;;;5098623;28;20441;-61
2022/04/28 07:06:34;;;;;;;22.23;14.98;;;;;;;;;;5098553;28;20563;-61
2022/04/28 07:09:00;;;;;;;19.45;15.05;;;;;;;;;;5098516;28;20530;-60
2022/04/28 07:11:26;;;;;;;19.80;16.02;;;;;;;;;;5098460;28;20224;-61
2022/04/28 07:13:53;;;;;;;22.75;17.05;;;;;;;;;;5098710;28;20207;-61
2022/04/28 07:16:19;;;;;;;22.13;16.15;;;;;;;;;;5098186;28;20207;-60
2022/04/28 07:18:47;;;;;;;17.38;15.32;;;;;;;;;;5097601;28;20216;-61
2022/04/28 07:21:13;;;;;;;17.85;15.93;;;;;;;;;;5098446;28;20208;-61
2022/04/28 07:23:39;;;;;;;21.63;15.60;;;;;;;;;;5097944;28;20249;-61
2022/04/28 07:26:05;;;;;;;22.92;17.15;;;;;;;;;;5098484;28;20450;-61
2022/04/28 07:28:32;;;;;;;20.52;16.23;;;;;;;;;;5098408;28;20285;-61
2022/04/28 07:30:58;;;;;;;27.95;16.75;;;;;;;;;;5098341;28;20261;-61
2022/04/28 07:33:24;;;;;;;21.42;15.65;;;;;;;;;;5098198;28;20436;-61
2022/04/28 07:35:52;;;;;;;19.10;15.52;;;;;;;;;;5098358;28;20235;-61
2022/04/28 07:38:18;;;;;;;17.10;14.20;;;;;;;;;;5098335;28;20463;-61
2022/04/28 07:40:44;;;;;;;15.95;13.23;;;;;;;;;;5098675;28;20509;-60
2022/04/28 07:43:11;;;;;;;19.38;13.90;;;;;;;;;;5098030;28;20207;-61
2022/04/28 07:45:37;;;;;;;20.38;13.25;;;;;;;;;;5098147;28;20208;-61
2022/04/28 07:48:05;;;;;;;15.38;12.45;;;;;;;;;;5097834;28;20218;-61
2022/04/28 07:50:32;;;;;;;13.18;11.55;;;;;;;;;;5097781;28;20224;-61
2022/04/28 07:52:59;;;;;;;14.27;11.13;;;;;;;;;;5097579;28;20423;-61
2022/04/28 07:55:25;;;;;;;16.90;11.65;;;;;;;;;;5098511;28;20249;-61
2022/04/28 07:57:52;;;;;;;15.00;9.63;;;;;;;;;;5098780;28;20507;-61
2022/04/28 08:00:19;;;;;;;11.57;8.55;;;;;;;;;;5097910;28;20596;-61
2022/04/28 08:02:45;;;;;;;10.45;8.10;;;;;;;;;;5097370;28;20542;-61
2022/04/28 08:05:11;;;;;;;10.40;7.85;;;;;;;;;;5097554;28;20265;-60
2022/04/28 08:07:37;;;;;;;7.35;6.72;;;;;;;;;;5097690;28;20208;-59
2022/04/28 08:10:05;;;;;;;8.10;7.28;;;;;;;;;;5091575;28;20457;-59
2022/04/28 08:12:32;;;;;;;5.97;5.45;;;;;;;;;;5080551;28;20386;-59
2022/04/28 08:14:58;;;;;;;4.90;4.50;;;;;;;;;;5087256;28;20235;-61
2022/04/28 08:17:24;;;;;;;4.60;4.25;;;;;;;;;;5082497;28;20208;-61
2022/04/28 08:19:50;;;;;;;4.22;3.70;;;;;;;;;;5077085;28;20215;-61
2022/04/28 08:22:17;;;;;;;4.05;3.65;;;;;;;;;;5076964;28;20593;-58
2022/04/28 08:24:43;;;;;;;3.80;3.50;;;;;;;;;;5076739;28;20223;-61
2022/04/28 08:27:11;;;;;;;4.18;3.80;;;;;;;;;;5077092;28;20208;-60
2022/04/28 08:29:37;;;;;;;4.32;3.70;;;;;;;;;;5085719;28;20542;-61
2022/04/28 08:32:04;;;;;;;6.05;3.60;;;;;;;;;;5097275;28;20273;-62
2022/04/28 08:34:30;;;;;;;4.38;3.97;;;;;;;;;;5097198;28;20461;-62
2022/04/28 08:36:56;;;;;;;3.83;3.53;;;;;;;;;;5097073;28;20204;-61
2022/04/28 08:39:22;;;;;;;3.95;3.75;;;;;;;;;;5097096;28;20211;-62
2022/04/28 08:41:49;;;;;;;4.28;3.97;;;;;;;;;;5096799;28;20268;-62
2022/04/28 08:44:18;;;;;;;4.07;3.78;;;;;;;;;;5096907;28;20212;-62
2022/04/28 08:46:53;;;;;;;7.57;3.85;;;;;;;;;;5096539;28;20208;-61
2022/04/28 08:49:22;;;;;;;4.10;3.72;;;;;;;;;;5096765;28;20214;-61
2022/04/28 08:51:49;;;;;;;4.18;3.92;;;;;;;;;;5096690;28;20332;-57
2022/04/28 08:54:16;;;;;;;5.50;5.05;;;;;;;;;;5096602;28;20446;-55
2022/04/28 08:56:43;;;;;;;6.72;4.15;;;;;;;;;;5096409;28;20208;-56
2022/04/28 08:59:09;;;;;;;7.03;3.75;;;;;;;;;;5096513;28;20278;-55
2022/04/28 09:01:37;;;;;;;3.88;3.47;;;;;;;;;;5096297;28;20215;-56
2022/04/28 09:04:04;;;;;;;4.10;3.90;;;;;;;;;;5096469;28;20219;-56
2022/04/28 09:06:33;;;;;;;6.00;3.20;;;;;;;;;;5096562;28;20261;-57
2022/04/28 09:09:00;;;;;;;4.07;3.75;;;;;;;;;;5096968;28;20261;-58
2022/04/28 09:11:27;;;;;;;7.70;3.60;;;;;;;;;;5096840;28;20295;-56
2022/04/28 09:14:11;;;;;;;4.18;3.88;;;;;;;;;;5096858;28;20257;-56
2022/04/28 09:16:40;;;;;;;3.75;3.47;;;;;;;;;;5096603;28;20220;-56
2022/04/28 09:19:07;;;;;;;5.50;3.72;;;;;;;;;;5096773;28;20518;-57
2022/04/28 09:21:33;;;;;;;4.63;3.88;;;;;;;;;;5096597;28;20261;-58
2022/04/28 09:24:00;;;;;;;4.40;4.00;;;;;;;;;;5096829;28;20211;-58
2022/04/28 09:26:26;;;;;;;2.92;2.83;;;;;;;;;;5096204;28;20215;-58
2022/04/28 09:28:53;;;;;;;3.88;3.03;;;;;;;;;;5096764;28;20253;-58
2022/04/28 09:31:19;;;;;;;4.82;3.03;;;;;;;;;;5096601;28;20461;-57
2022/04/28 09:33:48;;;;;;;2.85;2.75;;;;;;;;;;5096291;28;20207;-56
2022/04/28 09:36:14;;;;;;;2.65;2.55;;;;;;;;;;5096321;28;20225;-59
2022/04/28 09:38:40;;;;;;;3.10;2.90;;;;;;;;;;5096553;28;20687;-57
2022/04/28 09:43:55;;;;;;;2.60;2.40;;;;;;;;;;5100381;28;20210;-58
2022/04/28 09:46:22;;;;;;;3.53;2.60;;;;;;;;;;5100260;28;20208;-57
2022/04/28 09:48:51;;;;;;;2.60;2.40;;;;;;;;;;5100868;28;20519;-57
2022/04/28 09:51:21;;;;;;;2.88;2.70;;;;;;;;;;5100705;28;20604;-58
2022/04/28 09:53:48;;;;;;;2.35;2.25;;;;;;;;;;5100398;28;20235;-58
2022/04/28 09:56:16;;;;;;;2.45;2.25;;;;;;;;;;5100548;28;20227;-58
2022/04/28 09:58:42;;;;;;;2.92;2.63;;;;;;;;;;5099984;28;20278;-58
2022/04/28 10:01:09;;;;;;;2.78;2.67;;;;;;;;;;5099762;28;20268;-58
2022/04/28 10:03:39;;;;;;;2.33;2.10;;;;;;;;;;5099186;28;20212;-58
2022/04/28 10:06:07;;;;;;;3.30;2.55;;;;;;;;;;5099301;28;20223;-58
2022/04/28 10:08:34;;;;;;;2.25;2.10;;;;;;;;;;5099002;28;20349;-59
2022/04/28 10:11:01;;;;;;;2.05;1.95;;;;;;;;;;5099049;28;20219;-58
2022/04/28 10:13:29;;;;;;;2.47;2.38;;;;;;;;;;5098563;28;20253;-57
2022/04/28 10:15:56;;;;;;;2.33;2.10;;;;;;;;;;5098968;28;20208;-58
2022/04/28 10:18:24;;;;;;;2.97;1.90;;;;;;;;;;5098663;28;20249;-58
2022/04/28 10:20:51;;;;;;;2.20;2.00;;;;;;;;;;5099111;28;20404;-58
2022/04/28 10:32:22;;;;;;;2.17;2.08;;;;;;;;;;5098565;28;20242;-58
2022/04/28 10:34:28;;;;;;;2.30;2.20;;;;;;;;;;5079220;28;20319;-58
2022/04/28 10:36:58;;;;;;;5.43;4.90;;;;;;;;;;5078960;28;20250;-58
2022/04/28 10:39:39;;;;;;;3.50;3.20;;;;;;;;;;5078883;28;20209;-57
2022/04/28 10:42:12;;;;;;;4.35;3.95;;;;;;;;;;5092413;28;20203;-56
2022/04/28 10:44:40;;;;;;;2.45;2.35;;;;;;;;;;5099105;28;20273;-56
2022/04/28 10:47:07;;;;;;;2.85;2.38;;;;;;;;;;5098708;28;20219;-55
2022/04/28 10:49:37;;;;;;;2.63;2.42;;;;;;;;;;5099034;28;20227;-56
2022/04/28 10:52:04;;;;;;;2.80;2.63;;;;;;;;;;5097679;28;20523;-56
2022/04/28 10:54:42;;;;;;;5.22;2.60;;;;;;;;;;5098621;28;20531;-57
2022/04/28 10:57:12;;;;;;;8.38;6.10;;;;;;;;;;5097442;28;20253;-58
2022/04/28 10:59:40;;;;;;;3.03;2.90;;;;;;;;;;5098629;28;20207;-58
2022/04/28 11:02:25;;;;;;;3.67;3.38;;;;;;;;;;5097175;28;20215;-58
2022/04/28 11:04:53;;;;;;;4.40;3.92;;;;;;;;;;5097414;28;20541;-58
2022/04/28 11:07:21;;;;;;;5.85;3.60;;;;;;;;;;5097637;28;20211;-58
2022/04/28 11:09:55;;;;;;;4.13;3.35;;;;;;;;;;5098270;28;20562;-58
2022/04/28 11:12:22;;;;;;;6.18;3.97;;;;;;;;;;5097920;28;20253;-57
2022/04/28 11:14:49;;;;;;;3.97;2.33;;;;;;;;;;5098160;28;20246;-57
2022/04/28 11:17:16;;;;;;;3.22;3.13;;;;;;;;;;5097929;28;20254;-59
2022/04/28 11:19:43;;;;;;;2.63;2.53;;;;;;;;;;5098298;28;20250;-57
2022/04/28 11:22:11;;;;;;;3.75;2.53;;;;;;;;;;5097900;28;20204;-56
2022/04/28 11:24:40;;;;;;;5.70;1.90;;;;;;;;;;5097929;28;20232;-57
2022/04/28 11:27:08;;;;;;;2.50;2.30;;;;;;;;;;5097438;28;20207;-57
2022/04/28 11:29:36;;;;;;;1.92;1.92;;;;;;;;;;5097799;28;20515;-57
2022/04/28 11:32:03;;;;;;;2.70;2.10;;;;;;;;;;5097351;28;20227;-57
2022/04/28 11:34:29;;;;;;;3.28;2.40;;;;;;;;;;5097355;28;20511;-57
2022/04/28 11:36:56;;;;;;;1.70;1.70;;;;;;;;;;5097664;28;20390;-57
2022/04/28 11:39:23;;;;;;;1.83;1.83;;;;;;;;;;5097590;28;20515;-58
2022/04/28 11:41:52;;;;;;;2.15;1.92;;;;;;;;;;5090930;28;20204;-59
2022/04/28 11:44:21;;;;;;;2.25;2.15;;;;;;;;;;5085570;28;20205;-59
2022/04/28 11:46:49;;;;;;;3.20;2.10;;;;;;;;;;5084433;28;20212;-59
2022/04/28 11:49:15;;;;;;;2.60;2.05;;;;;;;;;;5076761;28;20809;-59
2022/04/28 11:51:41;;;;;;;1.90;1.70;;;;;;;;;;5076461;28;20316;-58
2022/04/28 11:54:19;;;;;;;2.90;2.03;;;;;;;;;;5076563;28;20270;-59
2022/04/28 11:56:45;;;;;;;3.95;1.75;;;;;;;;;;5088010;28;20528;-60
2022/04/28 11:59:12;;;;;;;2.22;2.03;;;;;;;;;;5096976;28;20438;-58
2022/04/28 12:01:39;;;;;;;4.25;2.22;;;;;;;;;;5097001;28;20215;-59
2022/04/28 12:04:06;;;;;;;1.98;1.88;;;;;;;;;;5097291;28;20204;-58
2022/04/28 12:06:33;;;;;;;1.95;1.90;;;;;;;;;;5097427;28;20601;-56
2022/04/28 12:14:21;;;;;;;1.80;1.70;;;;;;;;;;5097639;28;20528;-57
2022/04/28 12:14:30;;;;;;;2.10;1.98;;;;;;;;;;5088177;28;20246;-58
2022/04/28 12:19:46;;;;;;;2.67;2.03;;;;;;;;;;5097313;28;20221;-58
2022/04/28 12:22:13;;;;;;;4.20;2.13;;;;;;;;;;5089228;28;20423;-57
2022/04/28 12:24:40;;;;;;;2.00;1.90;;;;;;;;;;5097083;28;20204;-59
2022/04/28 12:27:08;;;;;;;2.22;2.03;;;;;;;;;;5096972;28;20249;-59
2022/04/28 12:29:46;;;;;;;4.03;2.08;;;;;;;;;;5097121;28;20245;-58
2022/04/28 12:32:14;;;;;;;3.42;2.20;;;;;;;;;;5097215;28;20555;-57
2022/04/28 12:34:40;;;;;;;2.17;1.92;;;;;;;;;;5096840;28;20207;-58
2022/04/28 12:37:07;;;;;;;3.42;2.03;;;;;;;;;;5095485;28;20249;-58
2022/04/28 12:39:53;;;;;;;3.17;2.10;;;;;;;;;;5096661;28;20467;-58
2022/04/28 12:42:20;;;;;;;3.25;2.15;;;;;;;;;;5096187;28;20207;-58
2022/04/28 12:44:46;;;;;;;2.55;1.80;;;;;;;;;;5096715;28;20242;-59
2022/04/28 12:47:14;;;;;;;4.30;2.00;;;;;;;;;;5096917;28;20545;-59
2022/04/28 12:49:44;;;;;;;2.13;1.85;;;;;;;;;;5097480;28;20208;-58
2022/04/28 12:52:10;;;;;;;1.95;1.85;;;;;;;;;;5097325;28;20227;-59
2022/04/28 12:54:36;;;;;;;4.03;1.80;;;;;;;;;;5096800;28;20207;-59
2022/04/28 12:57:04;;;;;;;2.60;2.13;;;;;;;;;;5096679;28;20207;-57
2022/04/28 12:59:31;;;;;;;2.00;2.00;;;;;;;;;;5096917;28;20215;-58
2022/04/28 13:01:58;;;;;;;2.05;2.00;;;;;;;;;;5099418;28;20212;-58
2022/04/28 13:04:26;;;;;;;2.80;1.95;;;;;;;;;;5099723;28;20313;-58
2022/04/28 13:06:53;;;;;;;2.47;2.10;;;;;;;;;;5099329;28;20251;-57
2022/04/28 13:09:20;;;;;;;3.05;2.13;;;;;;;;;;5098465;28;20223;-59
2022/04/28 13:11:47;;;;;;;3.17;2.03;;;;;;;;;;5096427;28;20212;-58
2022/04/28 13:14:16;;;;;;;2.35;2.00;;;;;;;;;;5096555;28;20239;-59
2022/04/28 13:16:42;;;;;;;2.00;2.00;;;;;;;;;;5096020;28;20441;-59
2022/04/28 13:19:09;;;;;;;1.90;1.80;;;;;;;;;;5096274;28;20444;-67
2022/04/28 13:21:39;;;;;;;4.85;2.47;;;;;;;;;;5096701;28;20428;-67
2022/04/28 13:24:05;;;;;;;1.95;1.85;;;;;;;;;;5096421;28;20203;-67
2022/04/28 13:26:32;;;;;;;2.45;2.22;;;;;;;;;;5096713;28;20207;-67
2022/04/28 13:28:58;;;;;;;2.38;2.15;;;;;;;;;;5096690;28;20252;-67
2022/04/28 13:31:25;;;;;;;2.45;1.98;;;;;;;;;;5096297;28;20211;-67
2022/04/28 13:33:52;;;;;;;4.20;2.10;;;;;;;;;;5095979;28;20457;-67
2022/04/28 13:36:18;;;;;;;2.20;2.08;;;;;;;;;;5096208;28;20208;-67
2022/04/28 13:38:46;;;;;;;3.20;2.03;;;;;;;;;;5096555;28;20215;-67
2022/04/28 13:41:13;;;;;;;1.98;1.77;;;;;;;;;;5096395;28;20213;-67
2022/04/28 13:43:40;;;;;;;2.17;1.98;;;;;;;;;;5096012;28;20249;-67
2022/04/28 13:46:07;;;;;;;3.75;1.92;;;;;;;;;;5096409;28;20211;-67
2022/04/28 13:48:34;;;;;;;2.17;2.00;;;;;;;;;;5096246;28;20211;-67
2022/04/28 13:51:00;;;;;;;3.97;1.73;;;;;;;;;;5096492;28;20380;-67
2022/04/28 13:53:28;;;;;;;1.85;1.80;;;;;;;;;;5096275;28;20368;-67
2022/04/28 13:55:56;;;;;;;2.30;2.10;;;;;;;;;;5096510;28;20226;-67
2022/04/28 13:58:23;;;;;;;6.10;1.95;;;;;;;;;;5096390;28;20273;-67
2022/04/28 14:00:51;;;;;;;2.10;1.98;;;;;;;;;;5096020;28;20219;-67
2022/04/28 14:03:17;;;;;;;2.00;1.90;;;;;;;;;;5095462;28;20512;-67
2022/04/28 14:05:44;;;;;;;3.17;1.80;;;;;;;;;;5095698;28;20230;-67
2022/04/28 14:08:10;;;;;;;3.33;2.05;;;;;;;;;;5095794;28;20214;-67
2022/04/28 14:10:36;;;;;;;1.80;1.80;;;;;;;;;;5095855;28;20245;-67
2022/04/28 14:13:04;;;;;;;4.22;1.60;;;;;;;;;;5095349;28;20269;-67
2022/04/28 14:15:30;;;;;;;1.95;1.83;;;;;;;;;;5096153;28;20211;-67
2022/04/28 14:17:56;;;;;;;2.15;1.85;;;;;;;;;;5095944;28;20212;-67
2022/04/28 14:20:22;;;;;;;2.03;1.92;;;;;;;;;;5096741;28;20553;-67
2022/04/28 14:22:49;;;;;;;2.00;1.90;;;;;;;;;;5096094;28;20203;-67
2022/04/28 14:25:15;;;;;;;3.72;1.90;;;;;;;;;;5096306;28;20248;-67
2022/04/28 14:27:41;;;;;;;2.30;1.77;;;;;;;;;;5097861;28;20388;-67
2022/04/28 14:30:10;;;;;;;3.10;2.25;;;;;;;;;;5099948;28;20207;-67
2022/04/28 14:32:38;;;;;;;2.90;2.30;;;;;;;;;;5099376;28;20223;-67
2022/04/28 14:35:05;;;;;;;2.65;2.10;;;;;;;;;;5099557;28;20207;-67
2022/04/28 14:37:31;;;;;;;3.00;2.22;;;;;;;;;;5099528;28;20211;-67
2022/04/28 14:39:57;;;;;;;1.98;1.85;;;;;;;;;;5099377;28;20207;-67
2022/04/28 14:42:23;;;;;;;2.67;2.13;;;;;;;;;;5099180;28;20265;-67
2022/04/28 14:44:50;;;;;;;2.78;2.15;;;;;;;;;;5099494;28;20245;-67
2022/04/28 14:47:17;;;;;;;1.73;1.65;;;;;;;;;;5099200;28;20207;-67
2022/04/28 14:52:29;;;;;;;3.38;1.85;;;;;;;;;;5098862;28;20229;-67
2022/04/28 14:54:56;;;;;;;2.17;1.85;;;;;;;;;;5099063;28;20218;-67
2022/04/28 14:57:23;;;;;;;1.90;1.85;;;;;;;;;;5099101;28;20249;-67
2022/04/28 14:59:50;;;;;;;3.08;1.65;;;;;;;;;;5099140;28;20272;-67
2022/04/28 15:02:18;;;;;;;1.75;1.65;;;;;;;;;;5098909;28;20222;-67
2022/04/28 15:04:45;;;;;;;2.20;2.10;;;;;;;;;;5099286;28;20207;-67
2022/04/28 15:07:12;;;;;;;2.03;1.92;;;;;;;;;;5099497;28;20256;-67
2022/04/28 15:09:38;;;;;;;1.77;1.67;;;;;;;;;;5099185;28;20207;-67
2022/04/28 15:12:04;;;;;;;4.43;2.17;;;;;;;;;;5098649;28;20440;-67
2022/04/28 15:14:31;;;;;;;2.10;2.10;;;;;;;;;;5098834;28;20838;-67
2022/04/28 15:16:57;;;;;;;3.00;1.95;;;;;;;;;;5098890;28;20207;-67